createdAt,value
2023-01-11T00:01:22.821Z,6.73
2023-01-11T00:03:51.374Z,6.78
2023-01-11T00:06:19.710Z,6.73
2023-01-11T00:08:48.120Z,6.67
2023-01-11T00:11:17.731Z,6.69
2023-01-11T00:13:46.703Z,6.70
2023-01-11T00:16:16.524Z,6.79
2023-01-11T00:18:45.058Z,6.80
2023-01-11T00:21:13.558Z,6.74
2023-01-11T00:23:42.153Z,6.77
2023-01-11T00:26:13.870Z,6.76
2023-01-11T00:28:42.251Z,6.78
2023-01-11T00:31:10.942Z,6.80
2023-01-11T00:33:40.932Z,6.79
2023-01-11T00:36:10.417Z,6.70
2023-01-11T00:38:46.537Z,6.73
2023-01-11T00:41:34.554Z,6.77
2023-01-11T00:44:21.023Z,6.77
2023-01-11T00:47:07.082Z,6.84
2023-01-11T00:49:37.269Z,6.82
2023-01-11T00:52:09.103Z,6.80
2023-01-11T00:54:38.082Z,6.81
2023-01-11T00:57:07.571Z,6.81
2023-01-11T00:59:36.046Z,6.84
2023-01-11T01:02:04.849Z,6.87
2023-01-11T01:04:33.441Z,6.80
2023-01-11T01:07:03.198Z,6.89
2023-01-11T01:09:32.305Z,6.94
2023-01-11T01:12:02.683Z,6.89
2023-01-11T01:14:30.895Z,6.90
2023-01-11T01:17:01.650Z,6.90
2023-01-11T01:19:30.874Z,7.00
2023-01-11T01:22:02.275Z,6.97
2023-01-11T01:24:32.577Z,6.91
2023-01-11T01:27:01.259Z,6.99
2023-01-11T01:29:29.619Z,6.88
2023-01-11T01:31:58.051Z,6.93
2023-01-11T01:34:26.520Z,6.84
2023-01-11T01:36:54.872Z,6.88
2023-01-11T01:39:24.693Z,6.94
2023-01-11T01:41:53.216Z,6.96
2023-01-11T01:45:07.870Z,6.94
2023-01-11T01:47:45.486Z,6.96
2023-01-11T01:50:19.503Z,6.93
2023-01-11T01:52:51.957Z,6.82
2023-01-11T01:55:28.303Z,6.82
2023-01-11T01:57:59.180Z,6.76
2023-01-11T02:00:27.683Z,6.82
2023-01-11T02:02:58.855Z,6.88
2023-01-11T02:05:28.269Z,6.89
2023-01-11T02:07:59.154Z,6.90
2023-01-11T02:10:29.205Z,6.87
2023-01-11T02:13:02.062Z,6.87
2023-01-11T02:15:31.127Z,6.94
2023-01-11T02:17:59.599Z,6.97
2023-01-11T02:20:46.324Z,6.91
2023-01-11T02:23:50.710Z,6.96
2023-01-11T02:27:16.722Z,6.84
2023-01-11T02:30:00.749Z,6.85
2023-01-11T02:32:39.272Z,6.88
2023-01-11T02:35:19.008Z,6.96
2023-01-11T02:38:01.722Z,6.90
2023-01-11T02:40:43.182Z,6.95
2023-01-11T02:43:36.060Z,7.00
2023-01-11T02:46:13.185Z,7.03
2023-01-11T02:48:49.782Z,7.04
2023-01-11T02:51:23.681Z,7.04
2023-01-11T02:53:57.150Z,7.05
2023-01-11T02:56:29.423Z,6.97
2023-01-11T02:59:01.084Z,6.90
2023-01-11T03:01:30.996Z,6.95
2023-01-11T03:03:59.409Z,7.00
2023-01-11T03:06:32.663Z,6.95
2023-01-11T03:09:16.679Z,6.98
2023-01-11T03:12:19.792Z,6.93
2023-01-11T03:15:04.713Z,6.94
2023-01-11T03:17:47.844Z,6.94
2023-01-11T03:20:23.379Z,6.94
2023-01-11T03:23:06.098Z,6.98
2023-01-11T03:25:45.633Z,7.00
2023-01-11T03:28:23.586Z,7.01
2023-01-11T03:31:03.425Z,6.97
2023-01-11T03:33:38.851Z,7.08
2023-01-11T03:36:15.696Z,7.07
2023-01-11T03:38:51.655Z,7.06
2023-01-11T03:41:25.675Z,7.01
2023-01-11T03:43:56.842Z,7.09
2023-01-11T03:46:30.636Z,7.09
2023-01-11T03:49:05.191Z,7.08
2023-01-11T03:51:42.412Z,7.19
2023-01-11T03:54:15.335Z,7.20
2023-01-11T03:56:52.366Z,7.16
2023-01-11T03:59:21.280Z,7.18
2023-01-11T04:01:49.688Z,7.24
2023-01-11T04:04:19.512Z,7.29
2023-01-11T04:06:48.000Z,7.25
2023-01-11T04:09:16.424Z,7.32
2023-01-11T04:11:44.819Z,7.30
2023-01-11T04:14:13.206Z,7.32
2023-01-11T04:16:41.716Z,7.33
2023-01-11T04:19:10.152Z,7.36
2023-01-11T04:21:39.953Z,7.34
2023-01-11T04:24:09.027Z,7.41
2023-01-11T04:26:37.381Z,7.40
2023-01-11T04:29:05.864Z,7.40
2023-01-11T04:31:34.759Z,7.50
2023-01-11T04:34:03.264Z,7.50
2023-01-11T04:36:31.662Z,7.48
2023-01-11T04:39:01.615Z,7.47
2023-01-11T04:41:47.424Z,7.48
2023-01-11T04:44:16.092Z,7.47
2023-01-11T04:46:44.514Z,7.49
2023-01-11T04:49:12.899Z,7.45
2023-01-11T04:51:41.295Z,7.39
2023-01-11T04:54:11.157Z,7.47
2023-01-11T04:56:39.524Z,7.52
2023-01-11T04:59:07.889Z,7.54
2023-01-11T05:01:36.334Z,7.60
2023-01-11T05:04:04.915Z,7.60
2023-01-11T05:06:33.434Z,7.63
2023-01-11T05:09:01.883Z,7.66
2023-01-11T05:11:33.536Z,7.63
2023-01-11T05:14:01.978Z,7.69
2023-01-11T05:16:30.441Z,7.69
2023-01-11T05:19:02.334Z,7.62
2023-01-11T05:21:32.374Z,7.72
2023-01-11T05:24:02.378Z,7.75
2023-01-11T05:26:34.940Z,7.75
2023-01-11T05:29:06.100Z,7.77
2023-01-11T05:31:36.344Z,7.80
2023-01-11T05:34:06.922Z,7.82
2023-01-11T05:36:36.760Z,7.84
2023-01-11T05:39:07.228Z,7.87
2023-01-11T05:41:37.532Z,7.81
2023-01-11T05:44:24.217Z,7.84
2023-01-11T05:46:52.643Z,7.86
2023-01-11T05:49:21.108Z,7.86
2023-01-11T05:51:49.494Z,7.81
2023-01-11T05:54:17.963Z,7.83
2023-01-11T05:56:47.716Z,7.88
2023-01-11T05:59:16.132Z,7.92
2023-01-11T06:01:44.635Z,7.87
2023-01-11T06:04:13.122Z,7.93
2023-01-11T06:06:41.816Z,7.91
2023-01-11T06:09:10.396Z,7.96
2023-01-11T06:11:38.870Z,7.98
2023-01-11T06:14:08.696Z,7.97
2023-01-11T06:16:37.109Z,8.01
2023-01-11T06:19:05.525Z,8.01
2023-01-11T06:21:34.194Z,8.02
2023-01-11T06:24:02.610Z,8.03
2023-01-11T06:26:30.973Z,8.00
2023-01-11T06:28:59.568Z,7.97
2023-01-11T06:31:29.371Z,7.98
2023-01-11T06:33:57.806Z,7.99
2023-01-11T06:36:28.275Z,7.95
2023-01-11T06:38:57.936Z,8.01
2023-01-11T06:41:26.294Z,7.98
2023-01-11T06:43:54.735Z,8.01
2023-01-11T06:46:23.526Z,8.00
2023-01-11T06:48:53.431Z,8.01
2023-01-11T06:51:21.818Z,8.06
2023-01-11T06:53:50.176Z,8.05
2023-01-11T06:56:19.949Z,8.06
2023-01-11T06:58:48.749Z,8.07
2023-01-11T07:01:18.023Z,8.08
2023-01-11T07:03:46.556Z,8.12
2023-01-11T07:06:16.652Z,8.10
2023-01-11T07:08:45.171Z,8.06
2023-01-11T07:11:13.876Z,8.09
2023-01-11T07:13:42.307Z,8.16
2023-01-11T07:16:10.763Z,8.12
2023-01-11T07:18:39.158Z,8.16
2023-01-11T07:21:07.946Z,8.18
2023-01-11T07:23:37.724Z,8.29
2023-01-11T07:26:06.553Z,8.37
2023-01-11T07:28:35.095Z,8.38
2023-01-11T07:31:03.612Z,8.38
2023-01-11T07:33:32.100Z,8.42
2023-01-11T07:36:00.846Z,8.44
2023-01-11T07:38:29.728Z,8.48
2023-01-11T07:40:59.624Z,8.43
2023-01-11T07:43:27.016Z,8.48
2023-01-11T07:45:55.486Z,8.53
2023-01-11T07:48:26.903Z,8.51
2023-01-11T07:50:56.229Z,8.57
2023-01-11T07:53:26.576Z,8.52
2023-01-11T07:55:58.325Z,8.54
2023-01-11T07:58:26.763Z,8.54
2023-01-11T08:00:55.413Z,8.49
2023-01-11T08:03:24.225Z,8.50
2023-01-11T08:05:54.278Z,8.46
2023-01-11T08:08:24.644Z,8.59
2023-01-11T08:11:13.436Z,8.57
2023-01-11T08:14:00.860Z,8.59
2023-01-11T08:16:29.527Z,8.60
2023-01-11T08:18:57.961Z,8.62
2023-01-11T08:21:26.536Z,8.67
2023-01-11T08:23:55.452Z,8.64
2023-01-11T08:26:25.008Z,8.64
2023-01-11T08:28:56.183Z,8.62
2023-01-11T08:31:25.961Z,8.58
2023-01-11T08:33:54.431Z,8.63
2023-01-11T08:36:24.490Z,8.62
2023-01-11T08:38:56.257Z,8.60
2023-01-11T08:41:25.198Z,8.55
2023-01-11T08:43:55.572Z,8.54
2023-01-11T08:46:24.131Z,8.51
2023-01-11T08:48:53.598Z,8.53
2023-01-11T08:51:22.261Z,8.58
2023-01-11T08:53:52.872Z,8.55
2023-01-11T08:56:21.179Z,8.59
2023-01-11T08:58:49.563Z,8.55
2023-01-11T09:01:19.322Z,8.52
2023-01-11T09:03:47.704Z,8.55
2023-01-11T09:06:16.127Z,8.57
2023-01-11T09:08:44.513Z,8.59
2023-01-11T09:11:26.707Z,8.58
2023-01-11T09:13:55.138Z,8.59
2023-01-11T09:16:25.019Z,8.65
2023-01-11T09:18:53.443Z,8.58
2023-01-11T09:21:21.896Z,8.63
2023-01-11T09:23:50.378Z,8.61
2023-01-11T09:26:18.813Z,8.62
2023-01-11T09:28:47.204Z,8.64
2023-01-11T09:31:15.609Z,8.69
2023-01-11T09:33:45.405Z,8.66
2023-01-11T09:36:14.919Z,8.69
2023-01-11T09:38:44.058Z,8.65
2023-01-11T09:41:29.818Z,8.75
2023-01-11T09:44:06.435Z,8.72
2023-01-11T09:46:36.975Z,8.69
2023-01-11T09:49:07.759Z,8.75
2023-01-11T09:51:39.620Z,8.72
2023-01-11T09:54:10.778Z,8.80
2023-01-11T09:56:49.867Z,8.80
2023-01-11T09:59:29.812Z,8.84
2023-01-11T10:02:08.044Z,8.86
2023-01-11T10:05:10.845Z,8.87
2023-01-11T10:18:20.770Z,8.89
2023-01-11T10:18:29.801Z,8.95
2023-01-11T10:20:01.355Z,8.92
2023-01-11T10:22:36.879Z,8.89
2023-01-11T10:25:16.897Z,8.93
2023-01-11T10:27:56.885Z,9.02
2023-01-11T10:30:55.707Z,8.98
2023-01-11T10:33:46.369Z,9.02
2023-01-11T10:36:34.865Z,8.97
2023-01-11T10:39:32.003Z,9.02
2023-01-11T10:42:10.416Z,9.02
2023-01-11T10:44:49.503Z,8.97
2023-01-11T10:47:27.847Z,9.02
2023-01-11T10:50:04.188Z,8.99
2023-01-11T10:52:41.884Z,9.06
2023-01-11T10:55:14.794Z,8.95
2023-01-11T10:58:01.378Z,9.01
2023-01-11T11:00:41.288Z,9.07
2023-01-11T11:03:43.349Z,9.10
2023-01-11T11:06:21.648Z,9.16
2023-01-11T11:08:58.231Z,9.18
2023-01-11T11:11:34.523Z,9.17
2023-01-11T11:14:10.782Z,9.22
2023-01-11T11:16:56.127Z,9.26
2023-01-11T11:19:31.665Z,9.26
2023-01-11T11:22:00.713Z,9.29
2023-01-11T11:24:37.673Z,9.34
2023-01-11T11:27:21.989Z,9.39
2023-01-11T11:29:55.818Z,9.43
2023-01-11T11:32:31.907Z,9.45
2023-01-11T11:35:00.675Z,9.54
2023-01-11T11:37:34.190Z,9.61
2023-01-11T11:40:05.766Z,9.66
2023-01-11T11:42:34.168Z,9.67
2023-01-11T11:45:19.278Z,9.75
2023-01-11T11:48:04.034Z,9.74
2023-01-11T11:50:48.608Z,9.75
2023-01-11T11:53:42.970Z,9.83
2023-01-11T11:56:25.551Z,9.79
2023-01-11T11:58:55.382Z,9.92
2023-01-11T12:01:29.788Z,9.98
2023-01-11T12:04:02.340Z,10.07
2023-01-11T12:06:31.828Z,10.13
2023-01-11T12:09:03.819Z,10.17
2023-01-11T12:11:36.793Z,10.18
2023-01-11T12:14:18.262Z,10.18
2023-01-11T12:16:47.812Z,10.15
2023-01-11T12:19:35.784Z,10.20
2023-01-11T12:22:18.901Z,10.13
2023-01-11T12:24:48.983Z,10.06
2023-01-11T12:27:32.561Z,10.00
2023-01-11T12:30:20.036Z,10.02
2023-01-11T12:33:13.155Z,10.04
2023-01-11T12:35:52.937Z,10.00
2023-01-11T12:38:40.136Z,10.05
2023-01-11T12:41:47.774Z,10.02
2023-01-11T12:44:38.229Z,10.01
2023-01-11T12:47:42.494Z,10.06
2023-01-11T12:50:19.234Z,10.06
2023-01-11T12:53:15.056Z,10.08
2023-01-11T12:56:25.399Z,10.08
2023-01-11T12:58:59.900Z,10.04
2023-01-11T13:01:39.158Z,10.14
2023-01-11T13:04:52.669Z,10.08
2023-01-11T13:07:36.992Z,10.11
2023-01-11T13:10:22.571Z,10.12
2023-01-11T13:12:57.706Z,10.12
2023-01-11T13:15:42.176Z,10.14
2023-01-11T13:18:27.837Z,10.06
2023-01-11T13:21:03.229Z,10.05
2023-01-11T13:23:40.273Z,10.06
2023-01-11T13:26:20.409Z,10.13
2023-01-11T13:28:54.166Z,10.13
2023-01-11T13:31:24.026Z,10.14
2023-01-11T13:33:59.932Z,10.13
2023-01-11T13:36:38.159Z,10.09
2023-01-11T13:39:14.890Z,10.08
2023-01-11T13:41:48.133Z,10.08
2023-01-11T13:44:22.298Z,10.12
2023-01-11T13:47:03.683Z,10.14
2023-01-11T13:50:02.496Z,10.11
2023-01-11T13:52:49.807Z,10.10
2023-01-11T13:55:26.589Z,10.14
2023-01-11T13:58:01.454Z,10.18
2023-01-11T14:00:38.921Z,10.22
2023-01-11T14:03:24.149Z,10.13
2023-01-11T14:06:13.729Z,10.12
2023-01-11T14:09:22.657Z,10.16
2023-01-11T14:12:02.209Z,10.16
2023-01-11T14:14:59.027Z,10.11
2023-01-11T14:17:58.328Z,10.14
2023-01-11T14:20:36.515Z,10.07
2023-01-11T14:23:13.172Z,10.11
2023-01-11T14:26:03.793Z,10.02
2023-01-11T14:28:52.618Z,10.02
2023-01-11T14:31:45.321Z,9.94
2023-01-11T14:35:00.967Z,9.96
2023-01-11T14:38:17.750Z,9.90
2023-01-11T14:41:23.945Z,9.96
2023-01-11T14:44:44.632Z,9.96
2023-01-11T14:47:44.252Z,9.96
2023-01-11T14:50:22.322Z,9.92
2023-01-11T14:52:54.134Z,9.91
2023-01-11T14:55:29.117Z,9.89
2023-01-11T14:58:07.127Z,9.83
2023-01-11T15:01:08.624Z,9.86
2023-01-11T15:03:50.832Z,9.85
2023-01-11T15:06:22.836Z,9.79
2023-01-11T15:08:55.236Z,9.77
2023-01-11T15:11:40.826Z,9.89
2023-01-11T15:14:30.614Z,9.98
2023-01-11T15:17:20.749Z,9.88
2023-01-11T15:19:51.566Z,9.80
2023-01-11T15:22:30.924Z,9.82
2023-01-11T15:25:02.850Z,9.79
2023-01-11T15:27:36.956Z,9.74
2023-01-11T15:30:09.337Z,9.75
2023-01-11T15:32:38.076Z,9.67
2023-01-11T15:35:34.555Z,9.73
2023-01-11T15:38:12.075Z,9.75
2023-01-11T15:40:43.414Z,9.73
2023-01-11T15:43:50.826Z,9.71
2023-01-11T15:47:02.417Z,9.72
2023-01-11T15:50:16.674Z,9.75
2023-01-11T15:53:34.607Z,9.63
2023-01-11T15:56:48.218Z,9.81
2023-01-11T15:59:59.496Z,9.73
2023-01-11T16:03:16.083Z,9.63
2023-01-11T16:06:06.394Z,9.63
2023-01-11T16:08:43.121Z,9.55
2023-01-11T16:11:23.206Z,9.46
2023-01-11T16:14:28.949Z,9.56
2023-01-11T16:16:59.749Z,9.51
2023-01-11T16:19:33.566Z,9.51
2023-01-11T16:22:05.717Z,9.42
2023-01-11T16:24:44.884Z,9.38
2023-01-11T16:27:23.656Z,9.36
2023-01-11T16:29:53.188Z,9.29
2023-01-11T16:32:29.639Z,9.26
2023-01-11T16:34:58.143Z,9.27
2023-01-11T16:37:32.898Z,9.21
2023-01-11T16:40:07.551Z,9.15
2023-01-11T16:42:45.304Z,9.13
2023-01-11T16:45:20.711Z,9.15
2023-01-11T16:48:06.360Z,9.11
2023-01-11T16:50:35.853Z,9.06
2023-01-11T16:53:05.647Z,9.03
2023-01-11T16:55:37.848Z,9.19
2023-01-11T16:58:17.377Z,9.05
2023-01-11T17:00:59.841Z,9.06
2023-01-11T17:03:32.876Z,8.99
2023-01-11T17:06:20.260Z,8.96
2023-01-11T17:08:52.360Z,8.96
2023-01-11T17:11:33.603Z,8.89
2023-01-11T17:14:46.051Z,8.91
2023-01-11T17:17:15.157Z,8.86
2023-01-11T17:19:48.641Z,8.88
2023-01-11T17:22:24.789Z,8.84
2023-01-11T17:24:56.631Z,8.82
2023-01-11T17:27:30.117Z,8.81
2023-01-11T17:29:59.786Z,8.85
2023-01-11T17:32:37.012Z,8.84
2023-01-11T17:35:16.906Z,8.75
2023-01-11T17:37:46.882Z,8.72
2023-01-11T17:40:24.635Z,8.72
2023-01-11T17:43:20.601Z,8.79
2023-01-11T17:45:52.408Z,8.67
2023-01-11T17:48:21.558Z,8.71
2023-01-11T17:50:54.674Z,8.62
2023-01-11T17:53:26.908Z,8.56
2023-01-11T17:55:57.742Z,8.59
2023-01-11T17:58:28.358Z,8.58
2023-01-11T18:01:27.233Z,8.60
2023-01-11T18:03:58.060Z,8.59
2023-01-11T18:06:35.725Z,8.62
2023-01-11T18:09:07.003Z,8.59
2023-01-11T18:11:38.647Z,8.58
2023-01-11T18:14:19.047Z,8.42
2023-01-11T18:17:02.948Z,8.48
2023-01-11T18:19:39.618Z,8.41
2023-01-11T18:22:30.438Z,8.32
2023-01-11T18:25:04.284Z,8.30
2023-01-11T18:27:35.342Z,8.29
2023-01-11T18:30:06.602Z,8.29
2023-01-11T18:32:39.029Z,8.30
2023-01-11T18:35:18.822Z,8.31
2023-01-11T18:37:49.478Z,8.34
2023-01-11T18:40:20.052Z,8.29
2023-01-11T18:42:51.867Z,8.28
2023-01-11T18:45:21.933Z,8.24
2023-01-11T18:47:50.455Z,8.22
2023-01-11T18:50:19.820Z,8.22
2023-01-11T18:52:49.692Z,8.22
2023-01-11T18:55:18.797Z,8.22
2023-01-11T18:57:48.387Z,8.12
2023-01-11T19:00:18.796Z,8.15
2023-01-11T19:02:47.421Z,8.19
2023-01-11T19:05:19.089Z,8.05
2023-01-11T19:07:49.273Z,8.16
2023-01-11T19:10:19.770Z,8.15
2023-01-11T19:12:48.827Z,8.10
2023-01-11T19:15:18.240Z,8.06
2023-01-11T19:17:46.739Z,8.07
2023-01-11T19:20:19.535Z,8.04
2023-01-11T19:22:49.465Z,7.92
2023-01-11T19:25:24.313Z,7.91
2023-01-11T19:27:54.961Z,7.80
2023-01-11T19:30:23.525Z,7.85
2023-01-11T19:32:53.270Z,7.85
2023-01-11T19:35:23.649Z,7.88
2023-01-11T19:37:53.759Z,7.91
2023-01-11T19:40:22.578Z,7.91
2023-01-11T19:42:52.440Z,7.88
2023-01-11T19:45:20.930Z,7.85
2023-01-11T19:47:49.245Z,7.88
2023-01-11T19:50:18.274Z,7.91
2023-01-11T19:52:47.025Z,7.91
2023-01-11T19:55:17.027Z,7.90
2023-01-11T19:57:45.468Z,7.85
2023-01-11T20:00:15.145Z,7.83
2023-01-11T20:02:43.626Z,7.83
2023-01-11T20:05:13.545Z,7.76
2023-01-11T20:07:41.921Z,7.77
2023-01-11T20:10:11.778Z,7.70
2023-01-11T20:12:41.602Z,7.69
2023-01-11T20:15:11.625Z,7.73
2023-01-11T20:17:40.068Z,7.64
2023-01-11T20:20:10.049Z,7.63
2023-01-11T20:22:38.604Z,7.63
2023-01-11T20:25:08.309Z,7.64
2023-01-11T20:27:36.843Z,7.59
2023-01-11T20:30:08.403Z,7.57
2023-01-11T20:32:41.867Z,7.55
2023-01-11T20:35:11.685Z,7.54
2023-01-11T20:37:40.159Z,7.59
2023-01-11T20:40:11.841Z,7.58
2023-01-11T20:42:41.614Z,7.53
2023-01-11T20:45:12.696Z,7.49
2023-01-11T20:47:41.142Z,7.42
2023-01-11T20:50:11.133Z,7.39
2023-01-11T20:52:39.564Z,7.43
2023-01-11T20:55:09.294Z,7.45
2023-01-11T20:57:37.735Z,7.46
2023-01-11T21:02:39.729Z,7.43
2023-01-11T21:05:09.310Z,7.48
2023-01-11T21:07:38.089Z,7.54
2023-01-11T21:10:09.068Z,7.55
2023-01-11T21:15:08.651Z,7.52
2023-01-11T21:17:38.606Z,7.49
2023-01-11T21:20:08.676Z,7.53
2023-01-11T21:22:37.129Z,7.45
2023-01-11T21:25:06.455Z,7.43
2023-01-11T21:27:35.041Z,7.27
2023-01-11T21:30:03.938Z,7.27
2023-01-11T21:32:32.273Z,7.35
2023-01-11T21:35:02.061Z,7.25
2023-01-11T21:37:30.786Z,7.26
2023-01-11T21:39:59.125Z,7.25
2023-01-11T21:42:27.517Z,7.23
2023-01-11T21:44:55.898Z,7.33
2023-01-11T21:47:24.339Z,7.41
2023-01-11T21:49:52.712Z,7.36
2023-01-11T21:52:22.484Z,7.38
2023-01-11T21:54:53.859Z,7.35
2023-01-11T21:57:22.477Z,7.32
2023-01-11T21:59:50.850Z,7.22
2023-01-11T22:02:19.241Z,7.20
2023-01-11T22:04:47.722Z,7.28
2023-01-11T22:07:16.157Z,7.18
2023-01-11T22:10:03.421Z,7.09
2023-01-11T22:12:32.383Z,7.25
2023-01-11T22:15:00.857Z,7.27
2023-01-11T22:17:29.239Z,7.22
2023-01-11T22:19:58.808Z,7.11
2023-01-11T22:22:28.339Z,7.18
2023-01-11T22:24:58.200Z,7.22
2023-01-11T22:27:26.636Z,7.22
2023-01-11T22:29:55.051Z,7.30
2023-01-11T22:32:23.750Z,7.26
2023-01-11T22:34:52.178Z,7.20
2023-01-11T22:37:20.733Z,7.06
2023-01-11T22:39:52.981Z,7.13
2023-01-11T22:42:22.746Z,7.05
2023-01-11T22:44:53.407Z,7.05
2023-01-11T22:47:30.570Z,7.12
2023-01-11T22:49:59.138Z,7.21
2023-01-11T22:52:27.579Z,7.19
2023-01-11T22:54:56.095Z,7.23
2023-01-11T22:57:25.832Z,7.09
2023-01-11T22:59:54.279Z,7.18
2023-01-11T23:02:22.667Z,7.20
2023-01-11T23:04:51.094Z,7.20
2023-01-11T23:07:19.591Z,7.20
2023-01-11T23:09:48.024Z,7.23
2023-01-11T23:12:34.109Z,7.25
2023-01-11T23:15:04.590Z,7.27
2023-01-11T23:17:32.927Z,7.41
2023-01-11T23:20:01.302Z,7.51
2023-01-11T23:22:29.671Z,7.50
2023-01-11T23:24:58.031Z,7.54
2023-01-11T23:27:26.391Z,7.60
2023-01-11T23:29:54.734Z,7.68
2023-01-11T23:32:24.502Z,7.68
2023-01-11T23:34:52.968Z,7.76
2023-01-11T23:37:21.413Z,7.74
2023-01-11T23:39:49.791Z,7.77
2023-01-11T23:42:26.712Z,7.72
2023-01-11T23:44:55.831Z,7.70
2023-01-11T23:47:29.456Z,7.82
2023-01-11T23:50:00.400Z,7.83
2023-01-11T23:52:31.295Z,7.86
2023-01-11T23:55:00.701Z,7.85
2023-01-11T23:57:29.277Z,7.83
2023-01-11T23:59:57.720Z,9.14
